Time;durP1;ratioP1;P1;durP2;ratioP2;P2;SDS_P1;SDS_P2;PMS_P1;PMS_P2;Temp;Humidity;BMP_temperature;BMP_pressure;BME280_temperature;BME280_humidity;BME280_pressure;Samples;Min_cycle;Max_cycle;Signal;HPM_P1;HPM_P2
2023/06/18 00:01:12;;;;;;;18.33;14.60;;;;;;;13.08;100.00;100769.50;4991744;28;20475;-64
2023/06/18 00:03:39;;;;;;;19.05;14.90;;;;;;;13.04;100.00;100765.44;4991344;28;20049;-64
2023/06/18 00:06:06;;;;;;;21.92;15.18;;;;;;;12.98;100.00;100771.56;4991727;28;20053;-65
2023/06/18 00:08:32;;;;;;;18.10;14.52;;;;;;;12.94;100.00;100768.38;4991351;28;20129;-64
2023/06/18 00:10:59;;;;;;;19.92;14.18;;;;;;;12.92;100.00;100773.06;4991469;28;20050;-64
2023/06/18 00:13:25;;;;;;;20.05;15.00;;;;;;;12.94;100.00;100771.06;4991698;28;20053;-65
2023/06/18 00:15:52;;;;;;;15.55;13.90;;;;;;;12.98;100.00;100776.94;4990419;28;20096;-64
2023/06/18 00:18:19;;;;;;;22.50;14.95;;;;;;;13.01;100.00;100776.59;4991157;28;20053;-62
2023/06/18 00:20:46;;;;;;;18.52;14.77;;;;;;;12.98;100.00;100776.94;4990063;28;20065;-64
2023/06/18 00:23:13;;;;;;;18.48;15.55;;;;;;;12.96;100.00;100771.72;4991303;28;20184;-64
2023/06/18 00:25:39;;;;;;;22.63;15.25;;;;;;;12.98;100.00;100771.56;4991003;28;20116;-64
2023/06/18 00:28:06;;;;;;;18.13;14.80;;;;;;;12.85;100.00;100766.72;4991400;28;20050;-64
2023/06/18 00:30:33;;;;;;;17.92;15.00;;;;;;;12.76;100.00;100765.88;4991008;28;20046;-64
2023/06/18 00:33:00;;;;;;;19.65;15.00;;;;;;;12.72;100.00;100767.22;4991354;28;20498;-64
2023/06/18 00:35:26;;;;;;;22.92;16.05;;;;;;;12.74;100.00;100767.06;4995293;28;20104;-62
2023/06/18 00:37:54;;;;;;;17.90;14.00;;;;;;;12.70;100.00;100763.88;5011403;28;20108;-65
2023/06/18 00:40:20;;;;;;;17.48;15.40;;;;;;;12.65;100.00;100772.44;5010450;28;20050;-64
2023/06/18 00:42:48;;;;;;;20.83;15.15;;;;;;;12.61;100.00;100763.06;5010415;28;20137;-64
2023/06/18 00:45:16;;;;;;;20.90;15.98;;;;;;;12.61;100.00;100764.91;5010222;28;20096;-63
2023/06/18 00:47:44;;;;;;;24.13;15.60;;;;;;;12.60;100.00;100758.69;5010035;28;20046;-64
2023/06/18 00:50:16;;;;;;;22.90;16.85;;;;;;;12.55;100.00;100762.91;5009863;28;20124;-64
2023/06/18 00:52:47;;;;;;;21.70;16.70;;;;;;;12.61;100.00;100757.66;5010318;28;20042;-65
2023/06/18 00:55:18;;;;;;;22.67;16.67;;;;;;;12.55;100.00;100760.19;5010194;28;20100;-63
2023/06/18 00:57:49;;;;;;;19.60;15.60;;;;;;;12.52;100.00;100756.03;5010328;28;20287;-65
2023/06/18 01:00:19;;;;;;;19.48;15.95;;;;;;;12.52;100.00;100758.72;4993045;28;20050;-63
2023/06/18 01:02:49;;;;;;;19.45;15.50;;;;;;;12.48;100.00;100765.44;5009949;28;20089;-63
2023/06/18 01:09:05;;;;;;;21.58;16.73;;;;;;;12.43;100.00;100769.66;5009901;28;20045;-64
2023/06/18 01:11:37;;;;;;;19.45;17.13;;;;;;;12.42;100.00;100763.44;5010064;28;20046;-63
2023/06/18 01:14:09;;;;;;;19.45;16.30;;;;;;;12.42;100.00;100766.13;4992927;28;20042;-64
2023/06/18 01:16:46;;;;;;;20.63;17.58;;;;;;;12.47;100.00;100768.31;5010071;28;20080;-65
2023/06/18 01:19:28;;;;;;;23.25;16.80;;;;;;;12.48;100.00;100764.59;5009670;28;20126;-64
2023/06/18 01:22:01;;;;;;;19.38;17.17;;;;;;;12.50;100.00;100765.28;5010235;28;20048;-65
2023/06/18 01:24:32;;;;;;;18.67;16.67;;;;;;;12.41;100.00;100767.97;5009511;28;20046;-65
2023/06/18 01:26:59;;;;;;;18.52;16.40;;;;;;;12.33;100.00;100767.16;5009507;28;20049;-65
2023/06/18 01:29:27;;;;;;;20.08;16.40;;;;;;;12.37;100.00;100771.19;5011876;28;20104;-64
2023/06/18 01:31:56;;;;;;;22.77;16.85;;;;;;;12.34;100.00;100771.50;5014106;28;20038;-64
2023/06/18 01:34:24;;;;;;;21.05;17.48;;;;;;;12.35;100.00;100771.38;5013731;28;20042;-65
2023/06/18 01:37:10;;;;;;;20.25;16.42;;;;;;;12.33;100.00;100769.84;4997859;28;20390;-64
2023/06/18 01:40:07;;;;;;;20.52;16.75;;;;;;;12.37;100.00;100768.50;4994242;28;20465;-64
2023/06/18 01:42:37;;;;;;;18.63;15.15;;;;;;;12.34;100.00;100769.66;4994321;28;20490;-64
2023/06/18 01:45:15;;;;;;;18.15;15.23;;;;;;;12.30;100.00;100771.03;4994232;28;20101;-65
2023/06/18 01:47:44;;;;;;;20.67;15.82;;;;;;;12.25;100.00;100759.94;4994101;28;20467;-65
2023/06/18 01:50:13;;;;;;;23.42;17.05;;;;;;;12.21;100.00;100768.50;4994243;28;20050;-64
2023/06/18 01:52:43;;;;;;;22.48;16.05;;;;;;;12.30;100.00;100778.25;4994150;28;20050;-64
2023/06/18 01:55:10;;;;;;;21.40;17.27;;;;;;;12.31;100.00;100782.63;4993798;28;20042;-64
2023/06/18 01:57:37;;;;;;;20.13;16.25;;;;;;;12.26;100.00;100777.75;4993778;28;20050;-64
2023/06/18 02:00:06;;;;;;;20.42;15.23;;;;;;;12.18;100.00;100785.84;4994236;28;20100;-65
2023/06/18 02:02:33;;;;;;;25.75;15.65;;;;;;;12.20;100.00;100782.97;4993676;28;20049;-65
2023/06/18 02:04:59;;;;;;;18.45;16.05;;;;;;;12.15;100.00;100783.50;4993637;28;20038;-65
2023/06/18 02:07:26;;;;;;;23.67;16.85;;;;;;;12.15;100.00;100786.19;4994130;28;20046;-65
2023/06/18 02:09:52;;;;;;;19.77;15.80;;;;;;;12.17;100.00;100794.91;4993840;28;20043;-65
2023/06/18 02:12:19;;;;;;;17.33;15.40;;;;;;;12.17;100.00;100786.81;4993689;28;20046;-64
2023/06/18 02:14:46;;;;;;;20.10;15.93;;;;;;;12.20;100.00;100799.94;4993874;28;20093;-65
2023/06/18 02:17:12;;;;;;;18.02;15.88;;;;;;;12.19;100.00;100798.28;4993737;28;20518;-66
2023/06/18 02:19:39;;;;;;;21.83;15.27;;;;;;;12.18;100.00;100807.34;4993473;28;20469;-64
2023/06/18 02:22:06;;;;;;;23.27;17.23;;;;;;;12.23;100.00;100804.16;4992316;28;20046;-65
2023/06/18 02:24:32;;;;;;;21.33;17.05;;;;;;;12.12;100.00;100802.66;4992984;28;20042;-65
2023/06/18 02:26:59;;;;;;;21.27;17.70;;;;;;;12.06;100.00;100803.31;4993425;28;20057;-64
2023/06/18 02:29:26;;;;;;;20.80;17.40;;;;;;;12.04;100.00;100799.97;4994050;28;20101;-65
2023/06/18 02:31:52;;;;;;;27.73;19.15;;;;;;;12.03;100.00;100803.66;4993940;28;20100;-64
2023/06/18 02:34:19;;;;;;;26.75;19.05;;;;;;;12.00;100.00;100793.22;4993193;28;20100;-64
2023/06/18 02:36:47;;;;;;;24.35;19.00;;;;;;;11.99;100.00;100797.75;5007704;28;20053;-64
2023/06/18 02:39:13;;;;;;;23.60;18.80;;;;;;;12.01;100.00;100798.44;5012318;28;20418;-64
2023/06/18 02:41:40;;;;;;;23.60;20.10;;;;;;;12.07;100.00;100795.09;5012281;28;20096;-65
2023/06/18 02:44:07;;;;;;;24.65;20.15;;;;;;;12.06;100.00;100800.63;5012382;28;20096;-65
2023/06/18 02:46:34;;;;;;;22.58;20.17;;;;;;;12.04;100.00;100799.97;5012175;28;20050;-65
2023/06/18 02:49:00;;;;;;;25.50;19.70;;;;;;;12.03;100.00;100799.09;5012246;28;20428;-66
2023/06/18 02:51:27;;;;;;;28.10;19.83;;;;;;;12.01;100.00;100798.44;5011989;28;20049;-63
2023/06/18 02:53:53;;;;;;;29.27;20.17;;;;;;;12.02;100.00;100794.75;5012473;28;20050;-65
2023/06/18 02:56:21;;;;;;;27.10;22.33;;;;;;;11.87;100.00;100793.75;5011992;28;20096;-65
2023/06/18 02:58:55;;;;;;;23.55;20.45;;;;;;;12.00;100.00;100793.22;5012174;28;20057;-64
2023/06/18 03:01:23;;;;;;;23.73;21.00;;;;;;;11.99;100.00;100791.53;4995145;28;20053;-64
2023/06/18 03:03:51;;;;;;;29.65;21.27;;;;;;;12.08;100.00;100788.69;5011714;28;20045;-65
2023/06/18 03:06:17;;;;;;;29.30;21.38;;;;;;;12.10;100.00;100796.59;5011708;28;20453;-65
2023/06/18 03:08:46;;;;;;;24.25;21.40;;;;;;;12.11;100.00;100795.59;5012030;28;20052;-65
2023/06/18 03:11:12;;;;;;;25.35;21.40;;;;;;;12.02;100.00;100785.84;5025427;28;20075;-65
2023/06/18 03:13:39;;;;;;;29.65;21.70;;;;;;;11.96;100.00;100794.56;5031606;28;20076;-65
2023/06/18 03:16:05;;;;;;;24.48;21.85;;;;;;;11.93;100.00;100782.28;5030211;28;20132;-65
2023/06/18 03:18:33;;;;;;;27.17;22.25;;;;;;;11.97;100.00;100777.41;5031235;28;20056;-65
2023/06/18 03:20:59;;;;;;;30.55;21.90;;;;;;;12.02;100.00;100793.91;5031529;28;20096;-65
2023/06/18 03:23:26;;;;;;;26.58;21.02;;;;;;;12.05;100.00;100790.88;5031860;28;20053;-65
2023/06/18 03:25:52;;;;;;;27.20;21.20;;;;;;;12.11;100.00;100790.22;5031374;28;20509;-65
2023/06/18 03:28:19;;;;;;;25.48;21.30;;;;;;;12.16;100.00;100787.84;5029881;28;20046;-64
2023/06/18 03:30:45;;;;;;;25.88;21.75;;;;;;;12.13;100.00;100793.56;5031394;28;20120;-65
2023/06/18 03:33:12;;;;;;;27.67;21.45;;;;;;;12.34;100.00;100795.72;5031321;28;20519;-66
2023/06/18 03:35:38;;;;;;;28.23;21.05;;;;;;;12.25;100.00;100796.78;5024138;28;20042;-65
2023/06/18 03:38:05;;;;;;;30.95;20.55;;;;;;;12.28;100.00;100799.97;5011253;28;20524;-65
2023/06/18 03:40:31;;;;;;;28.52;21.35;;;;;;;12.36;100.00;100808.00;5011382;28;20128;-65
2023/06/18 03:42:58;;;;;;;28.70;21.90;;;;;;;12.39;100.00;100798.75;5011427;28;20049;-65
2023/06/18 03:45:25;;;;;;;31.42;20.88;;;;;;;12.40;100.00;100801.28;5011338;28;20049;-66
2023/06/18 03:47:52;;;;;;;23.45;19.83;;;;;;;12.46;100.00;100798.94;5011153;28;20096;-65
2023/06/18 03:50:18;;;;;;;30.67;20.50;;;;;;;12.49;100.00;100798.59;5011201;28;20065;-64
2023/06/18 03:52:45;;;;;;;25.15;20.48;;;;;;;12.54;100.00;100796.22;5010976;28;20057;-65
2023/06/18 03:55:12;;;;;;;23.50;20.13;;;;;;;12.49;100.00;100799.44;5011365;28;20092;-65
2023/06/18 03:57:39;;;;;;;23.38;19.95;;;;;;;12.57;100.00;100796.69;5010931;28;20141;-65
2023/06/18 04:00:08;;;;;;;24.73;20.48;;;;;;;12.54;100.00;100801.59;5011079;28;20065;-66
2023/06/18 04:02:35;;;;;;;25.42;20.48;;;;;;;12.62;100.00;100799.72;5010952;28;20046;-65
2023/06/18 04:05:01;;;;;;;24.67;20.15;;;;;;;12.49;100.00;100804.81;5010983;28;20041;-64
2023/06/18 04:07:28;;;;;;;24.55;20.00;;;;;;;12.33;100.00;100808.34;5010700;28;20057;-63
2023/06/18 04:09:54;;;;;;;25.67;21.63;;;;;;;12.31;100.00;100796.91;5011553;28;20095;-65
2023/06/18 04:12:21;;;;;;;28.35;21.90;;;;;;;12.31;100.00;100799.59;5010894;28;20046;-65
2023/06/18 04:14:47;;;;;;;28.35;23.40;;;;;;;12.35;100.00;100797.44;5011030;28;20103;-65
2023/06/18 04:17:14;;;;;;;26.42;21.20;;;;;;;12.36;100.00;100802.63;5010537;28;20045;-64
2023/06/18 04:19:40;;;;;;;24.92;22.17;;;;;;;12.51;100.00;100799.25;5010685;28;20053;-65
2023/06/18 04:22:07;;;;;;;26.98;21.95;;;;;;;12.61;100.00;100798.03;4993456;28;20038;-65
2023/06/18 04:24:33;;;;;;;25.50;21.23;;;;;;;12.62;100.00;100806.94;5010600;28;20053;-64
2023/06/18 04:27:00;;;;;;;25.98;22.02;;;;;;;12.62;100.00;100805.09;5010513;28;20042;-64
2023/06/18 04:29:27;;;;;;;27.40;22.70;;;;;;;12.60;100.00;100809.00;5011131;28;20050;-64
2023/06/18 04:31:53;;;;;;;27.92;22.40;;;;;;;12.57;100.00;100807.47;5010722;28;20042;-65
2023/06/18 04:34:21;;;;;;;33.88;24.73;;;;;;;12.54;100.00;100806.97;5010613;28;20050;-64
2023/06/18 04:36:48;;;;;;;32.90;23.80;;;;;;;12.56;100.00;100805.81;5010143;28;20050;-65
2023/06/18 04:39:14;;;;;;;34.75;24.17;;;;;;;12.62;100.00;100804.25;5010500;28;20080;-66
2023/06/18 04:41:41;;;;;;;34.05;25.05;;;;;;;12.64;100.00;100807.63;5010479;28;20050;-64
2023/06/18 04:44:08;;;;;;;38.92;27.77;;;;;;;12.60;100.00;100812.50;5010068;28;20057;-64
2023/06/18 04:46:35;;;;;;;39.83;29.80;;;;;;;12.60;100.00;100809.81;5010021;28;20545;-65
2023/06/18 04:49:01;;;;;;;36.05;24.80;;;;;;;12.68;100.00;100818.88;5010187;28;20073;-65
2023/06/18 04:51:28;;;;;;;35.63;23.73;;;;;;;12.86;100.00;100811.47;5010380;28;20053;-64
2023/06/18 04:53:54;;;;;;;29.52;21.45;;;;;;;13.03;100.00;100820.31;5010411;28;20046;-66
2023/06/18 04:56:21;;;;;;;30.10;21.58;;;;;;;13.11;100.00;100814.91;5009693;28;20437;-65
2023/06/18 04:58:47;;;;;;;27.50;20.30;;;;;;;13.10;100.00;100813.22;5010233;28;20053;-65
2023/06/18 05:01:14;;;;;;;25.80;20.38;;;;;;;13.05;100.00;100815.63;5009712;28;20465;-65
2023/06/18 05:03:41;;;;;;;30.00;21.40;;;;;;;13.01;100.00;100814.28;5009851;28;20130;-66
2023/06/18 05:06:07;;;;;;;28.15;20.38;;;;;;;13.16;100.00;100817.94;5013922;28;20505;-64
2023/06/18 05:08:34;;;;;;;24.60;18.75;;;;;;;13.24;100.00;100820.56;5014181;28;20037;-64
2023/06/18 05:11:00;;;;;;;26.00;18.02;;;;;;;13.15;100.00;100821.66;5013985;28;20042;-64
2023/06/18 05:13:27;;;;;;;25.83;18.95;;;;;;;13.30;100.00;100819.03;5014329;28;20050;-64
2023/06/18 05:15:53;;;;;;;27.77;19.88;;;;;;;13.37;100.00;100824.56;5014352;28;20088;-64
2023/06/18 05:18:20;;;;;;;25.67;19.25;;;;;;;13.38;100.00;100815.47;5013709;28;20107;-64
2023/06/18 05:20:47;;;;;;;23.80;15.35;;;;;;;13.53;100.00;100824.50;5014087;28;20054;-65
2023/06/18 05:23:13;;;;;;;21.48;15.23;;;;;;;13.62;100.00;100815.31;5013962;28;20490;-65
2023/06/18 05:25:40;;;;;;;22.25;15.90;;;;;;;13.71;100.00;100825.03;5013451;28;20038;-65
2023/06/18 05:28:06;;;;;;;17.77;13.35;;;;;;;13.83;100.00;100812.84;5013586;28;20046;-65
2023/06/18 05:30:33;;;;;;;19.65;13.20;;;;;;;14.00;100.00;100816.25;5013544;28;20053;-64
2023/06/18 05:32:59;;;;;;;17.60;14.07;;;;;;;14.02;100.00;100819.63;5013838;28;20115;-64
2023/06/18 05:35:26;;;;;;;22.40;14.57;;;;;;;13.97;100.00;100829.28;5009827;28;20121;-64
2023/06/18 05:37:53;;;;;;;17.48;12.98;;;;;;;14.12;100.00;100826.66;4994689;28;20149;-65
2023/06/18 05:40:19;;;;;;;19.23;14.55;;;;;;;14.00;100.00;100826.22;4994568;28;20589;-64
2023/06/18 05:42:46;;;;;;;19.70;13.27;;;;;;;14.14;100.00;100830.00;4994383;28;20050;-64
2023/06/18 05:45:13;;;;;;;17.55;13.18;;;;;;;14.07;100.00;100827.19;4994202;28;20096;-65
2023/06/18 05:47:39;;;;;;;16.73;11.77;;;;;;;14.23;100.00;100827.06;4994336;28;20101;-65
2023/06/18 05:50:07;;;;;;;19.83;12.27;;;;;;;14.28;100.00;100835.41;4993898;28;20469;-66
2023/06/18 05:52:33;;;;;;;17.73;13.10;;;;;;;14.35;100.00;100834.69;4994060;28;20046;-65
2023/06/18 05:55:00;;;;;;;13.93;11.95;;;;;;;14.40;100.00;100827.75;4994127;28;20485;-66
2023/06/18 05:57:27;;;;;;;18.40;11.90;;;;;;;14.44;100.00;100839.00;4994568;28;20403;-66
2023/06/18 05:59:54;;;;;;;13.18;11.80;;;;;;;14.49;100.00;100840.13;4993979;28;20418;-65
2023/06/18 06:02:20;;;;;;;13.55;10.63;;;;;;;14.58;100.00;100838.19;4993919;28;20050;-65
2023/06/18 06:04:47;;;;;;;12.13;10.40;;;;;;;14.61;100.00;100835.13;4993576;28;20121;-64
2023/06/18 06:07:14;;;;;;;13.38;11.18;;;;;;;14.65;100.00;100839.16;4993634;28;20050;-65
2023/06/18 06:09:40;;;;;;;12.60;10.50;;;;;;;14.72;100.00;100839.28;4993876;28;20054;-65
2023/06/18 06:12:08;;;;;;;11.88;9.30;;;;;;;14.85;100.00;100844.06;4993653;28;20050;-65
2023/06/18 06:14:34;;;;;;;12.20;9.52;;;;;;;14.93;100.00;100838.53;4993352;28;20505;-66
2023/06/18 06:17:01;;;;;;;10.93;9.32;;;;;;;15.00;100.00;100845.72;4993975;28;20050;-66
2023/06/18 06:19:27;;;;;;;30.05;8.60;;;;;;;15.14;100.00;100846.72;4993937;28;20042;-68
2023/06/18 06:21:54;;;;;;;14.90;9.48;;;;;;;15.19;100.00;100849.72;4993783;28;20050;-66
2023/06/18 06:24:20;;;;;;;16.05;9.05;;;;;;;15.39;100.00;100855.38;4993700;28;20050;-66
2023/06/18 06:26:47;;;;;;;11.95;8.75;;;;;;;15.39;100.00;100855.38;4993261;28;20454;-66
2023/06/18 06:29:14;;;;;;;13.70;8.10;;;;;;;15.51;100.00;100857.63;4993433;28;20046;-66
2023/06/18 06:31:40;;;;;;;9.75;8.40;;;;;;;15.44;100.00;100862.94;4993562;28;20050;-67
2023/06/18 06:34:07;;;;;;;10.77;8.40;;;;;;;15.47;100.00;100863.41;4993822;28;20495;-67
2023/06/18 06:36:35;;;;;;;11.30;8.77;;;;;;;15.51;100.00;100869.25;5006462;28;20054;-66
2023/06/18 06:39:03;;;;;;;15.88;8.02;;;;;;;15.68;100.00;100869.91;5012483;28;20050;-67
2023/06/18 06:41:29;;;;;;;8.52;7.47;;;;;;;15.77;100.00;100865.22;5012578;28;20050;-66
2023/06/18 06:43:56;;;;;;;9.32;7.30;;;;;;;15.79;100.00;100866.72;5013104;28;20068;-66
2023/06/18 06:46:22;;;;;;;9.93;8.02;;;;;;;15.91;100.00;100870.56;4995153;28;20049;-66
2023/06/18 06:48:49;;;;;;;11.10;8.27;;;;;;;16.10;100.00;100873.69;5012305;28;20454;-66
2023/06/18 06:51:16;;;;;;;8.75;6.13;;;;;;;16.25;100.00;100866.34;5012238;28;20038;-65
2023/06/18 06:53:43;;;;;;;8.55;5.95;;;;;;;16.33;100.00;100873.47;5012039;28;20579;-66
2023/06/18 06:56:12;;;;;;;8.80;5.80;;;;;;;16.36;100.00;100878.50;5012283;28;20057;-66
2023/06/18 06:58:39;;;;;;;11.73;7.47;;;;;;;16.49;100.00;100872.38;5011817;28;20438;-65
2023/06/18 07:01:05;;;;;;;7.57;6.10;;;;;;;16.64;100.00;100871.31;5011865;28;20092;-66
2023/06/18 07:03:32;;;;;;;6.70;6.00;;;;;;;16.82;100.00;100864.53;5003863;28;20050;-66
2023/06/18 07:05:59;;;;;;;9.68;6.93;;;;;;;16.86;100.00;100863.13;4992395;28;20054;-65
2023/06/18 07:08:25;;;;;;;8.40;7.07;;;;;;;17.12;100.00;100870.56;4993116;28;20050;-66
2023/06/18 07:10:52;;;;;;;10.35;7.13;;;;;;;17.03;100.00;100867.19;4992824;28;20513;-66
2023/06/18 07:13:18;;;;;;;9.93;7.40;;;;;;;17.36;100.00;100871.97;4992515;28;20453;-64
2023/06/18 07:15:45;;;;;;;11.52;7.60;;;;;;;17.37;100.00;100876.34;4992463;28;20042;-66
2023/06/18 07:18:12;;;;;;;7.78;6.95;;;;;;;17.58;100.00;100864.56;4992350;28;20050;-65
2023/06/18 07:20:39;;;;;;;6.05;5.13;;;;;;;17.96;100.00;100864.88;4992473;28;20461;-65
2023/06/18 07:23:05;;;;;;;12.90;8.70;;;;;;;18.29;100.00;100861.41;4992322;28;20042;-65
2023/06/18 07:25:32;;;;;;;7.75;6.57;;;;;;;18.81;100.00;100851.56;4992258;28;20054;-65
2023/06/18 07:27:58;;;;;;;8.00;6.03;;;;;;;19.05;100.00;100858.22;4991293;28;20046;-62
2023/06/18 07:30:25;;;;;;;5.75;5.15;;;;;;;19.23;100.00;100857.53;4993005;28;20046;-65
2023/06/18 07:32:51;;;;;;;7.55;5.60;;;;;;;19.78;100.00;100860.69;4992667;28;20046;-65
2023/06/18 07:35:18;;;;;;;8.80;5.35;;;;;;;19.42;100.00;100862.09;4992042;28;21969;-65
2023/06/18 07:37:44;;;;;;;7.38;5.63;;;;;;;19.99;100.00;100861.41;4991847;28;20050;-65
2023/06/18 07:40:11;;;;;;;6.72;5.32;;;;;;;20.17;100.00;100867.75;4991940;28;20042;-66
2023/06/18 07:42:38;;;;;;;8.93;5.82;;;;;;;20.05;100.00;100860.53;4992158;28;20046;-67
2023/06/18 07:45:05;;;;;;;7.07;5.25;;;;;;;20.32;100.00;100872.06;4991754;28;20068;-66
2023/06/18 07:47:31;;;;;;;7.63;5.50;;;;;;;20.85;98.16;100868.91;4991959;28;20517;-66
2023/06/18 07:49:59;;;;;;;7.75;5.60;;;;;;;20.82;90.04;100866.63;4992422;28;20050;-63
2023/06/18 07:52:26;;;;;;;12.20;6.20;;;;;;;21.20;87.18;100866.47;4992390;28;20108;-66
2023/06/18 07:54:53;;;;;;;5.05;4.53;;;;;;;21.71;85.76;100867.94;4991435;28;20050;-66
2023/06/18 07:57:19;;;;;;;6.22;4.97;;;;;;;21.91;79.74;100878.63;4991681;28;20046;-66
2023/06/18 07:59:47;;;;;;;7.18;5.80;;;;;;;22.33;77.54;100871.25;4991135;28;20462;-66
2023/06/18 08:02:14;;;;;;;6.95;4.95;;;;;;;22.03;73.38;100870.44;4991166;28;20059;-66
2023/06/18 08:04:40;;;;;;;6.05;5.45;;;;;;;21.42;74.95;100877.75;4990919;28;20198;-66
2023/06/18 08:07:07;;;;;;;7.47;5.72;;;;;;;21.14;79.34;100864.63;4991563;28;20046;-65
2023/06/18 08:09:34;;;;;;;9.32;5.78;;;;;;;21.16;80.44;100861.69;4990916;28;20097;-66
2023/06/18 08:12:01;;;;;;;7.13;5.53;;;;;;;21.82;77.04;100861.72;4991556;28;20046;-65
2023/06/18 08:14:28;;;;;;;7.03;5.60;;;;;;;22.06;75.97;100856.34;4991961;28;20057;-67
2023/06/18 08:16:54;;;;;;;7.95;5.85;;;;;;;22.45;72.84;100851.28;4991563;28;20057;-66
2023/06/18 08:19:21;;;;;;;5.50;4.80;;;;;;;22.25;68.45;100863.38;4991229;28;20043;-65
2023/06/18 08:21:47;;;;;;;6.43;4.40;;;;;;;21.97;69.25;100860.44;4991170;28;20054;-66
2023/06/18 08:24:14;;;;;;;5.53;4.75;;;;;;;22.50;64.61;100863.22;4991307;28;20105;-67
2023/06/18 08:26:41;;;;;;;6.97;5.05;;;;;;;22.62;64.00;100863.22;4990477;28;20066;-67
2023/06/18 08:29:07;;;;;;;5.72;4.78;;;;;;;23.15;63.40;100859.53;4990962;28;20130;-66
2023/06/18 08:31:34;;;;;;;5.90;4.95;;;;;;;22.92;59.53;100860.38;4991419;28;20358;-67
2023/06/18 08:34:01;;;;;;;7.88;4.68;;;;;;;23.10;61.16;100853.09;4991343;28;20072;-66
2023/06/18 08:36:27;;;;;;;7.68;4.47;;;;;;;23.44;60.18;100854.94;4974364;28;20097;-67
2023/06/18 08:38:54;;;;;;;8.48;4.68;;;;;;;23.97;59.02;100853.78;4990098;28;20046;-67
2023/06/18 08:41:21;;;;;;;5.30;4.32;;;;;;;24.02;58.03;100847.56;4990956;28;20112;-67
2023/06/18 08:43:48;;;;;;;5.25;4.03;;;;;;;24.27;57.99;100846.38;4990829;28;20081;-67
2023/06/18 08:46:16;;;;;;;13.13;5.18;;;;;;;24.99;55.83;100851.88;4990634;28;20100;-67
2023/06/18 08:49:04;;;;;;;5.65;5.03;;;;;;;25.42;52.89;100846.69;4989811;28;20060;-67
2023/06/18 08:51:32;;;;;;;4.68;4.13;;;;;;;25.72;51.96;100851.72;4990466;28;20093;-66
2023/06/18 08:54:12;;;;;;;6.78;4.82;;;;;;;24.77;49.82;100849.09;4990781;28;20422;-67
2023/06/18 08:56:47;;;;;;;8.23;4.50;;;;;;;24.35;54.35;100845.94;4990759;28;20093;-67
2023/06/18 08:59:14;;;;;;;8.18;4.85;;;;;;;24.71;53.70;100847.34;4990721;28;20127;-67
2023/06/18 09:01:43;;;;;;;7.07;4.40;;;;;;;24.56;51.81;100838.91;4990345;28;20140;-66
2023/06/18 09:04:10;;;;;;;8.00;4.15;;;;;;;23.96;54.84;100841.19;4990777;28;20097;-67
2023/06/18 09:06:37;;;;;;;4.93;3.97;;;;;;;23.22;58.22;100842.97;4990208;28;20049;-66
2023/06/18 09:09:04;;;;;;;5.70;3.92;;;;;;;22.97;59.60;100838.59;4989663;28;20078;-66
2023/06/18 09:11:33;;;;;;;7.78;4.65;;;;;;;22.39;62.83;100844.03;4989349;28;20042;-66
2023/06/18 09:14:03;;;;;;;7.57;4.40;;;;;;;21.82;66.43;100847.22;4990209;28;20074;-67
2023/06/18 09:16:30;;;;;;;8.88;4.40;;;;;;;21.62;68.65;100845.56;4990025;28;20125;-66
2023/06/18 09:18:57;;;;;;;5.57;4.50;;;;;;;22.05;68.12;100843.75;4990036;28;20454;-67
2023/06/18 09:21:42;;;;;;;6.55;4.85;;;;;;;22.60;65.04;100848.94;4972889;28;20124;-67
2023/06/18 09:24:16;;;;;;;7.40;4.25;;;;;;;23.06;62.08;100844.53;4989893;28;20056;-66
2023/06/18 09:26:43;;;;;;;10.85;4.60;;;;;;;23.64;58.06;100835.34;4989548;28;20097;-67
2023/06/18 09:29:11;;;;;;;5.75;4.00;;;;;;;23.69;58.04;100835.44;4989972;28;20046;-66
2023/06/18 09:31:44;;;;;;;10.05;4.00;;;;;;;24.94;53.51;100843.56;4989677;28;20057;-66
2023/06/18 09:34:16;;;;;;;8.02;3.92;;;;;;;25.70;51.03;100842.91;4990143;28;20188;-66
2023/06/18 09:36:45;;;;;;;3.70;3.40;;;;;;;26.45;47.00;100836.50;4989976;28;20058;-66
2023/06/18 09:39:16;;;;;;;5.43;3.65;;;;;;;26.53;44.75;100830.47;4989906;28;20047;-66
2023/06/18 09:41:44;;;;;;;6.60;3.75;;;;;;;27.19;42.84;100837.50;4989858;28;20069;-67
2023/06/18 09:44:12;;;;;;;6.00;3.40;;;;;;;27.75;39.87;100829.41;4989904;28;20093;-66
2023/06/18 09:46:43;;;;;;;3.50;3.20;;;;;;;27.83;42.43;100830.81;4989102;28;20043;-66
2023/06/18 09:49:12;;;;;;;3.22;2.92;;;;;;;27.84;42.30;100838.81;4989495;28;20390;-66
2023/06/18 09:51:41;;;;;;;3.78;3.20;;;;;;;26.67;43.46;100833.59;4993297;28;20467;-66
2023/06/18 09:54:08;;;;;;;4.22;3.22;;;;;;;25.18;45.61;100835.13;4993907;28;20050;-68
2023/06/18 09:56:35;;;;;;;7.00;3.65;;;;;;;24.73;47.67;100836.13;4993653;28;20174;-66
2023/06/18 09:59:03;;;;;;;6.10;3.47;;;;;;;24.20;48.89;100841.88;4993724;28;20097;-66
2023/06/18 10:01:50;;;;;;;4.85;3.42;;;;;;;23.96;48.18;100829.38;4993334;28;20050;-66
2023/06/18 10:04:17;;;;;;;10.98;3.70;;;;;;;23.31;50.46;100837.97;4993408;28;20046;-67
2023/06/18 10:06:58;;;;;;;9.48;4.18;;;;;;;23.24;51.19;100832.63;4993759;28;20050;-67
2023/06/18 10:09:29;;;;;;;9.73;3.95;;;;;;;23.06;53.65;100830.03;4993896;28;20046;-66
2023/06/18 10:11:57;;;;;;;4.82;3.60;;;;;;;23.46;53.06;100833.63;4993722;28;20042;-68
2023/06/18 10:14:27;;;;;;;4.15;3.50;;;;;;;24.42;50.46;100821.97;4993876;28;20101;-66
2023/06/18 10:16:58;;;;;;;5.57;3.47;;;;;;;25.52;47.28;100828.41;4993228;28;20051;-67
2023/06/18 10:19:33;;;;;;;5.97;3.53;;;;;;;26.23;44.70;100830.25;4993683;28;20042;-67
2023/06/18 10:22:05;;;;;;;7.47;3.40;;;;;;;26.69;43.64;100828.69;4993396;28;20120;-66
2023/06/18 10:24:39;;;;;;;3.65;3.33;;;;;;;26.54;43.88;100842.31;4993482;28;20101;-66
2023/06/18 10:27:07;;;;;;;6.07;3.10;;;;;;;26.84;43.17;100833.47;4993072;28;20038;-67
2023/06/18 10:29:34;;;;;;;6.57;3.20;;;;;;;27.09;43.35;100832.75;4993108;28;20046;-69
2023/06/18 10:32:03;;;;;;;8.95;3.80;;;;;;;27.78;42.15;100834.38;4993710;28;20054;-65
2023/06/18 10:34:31;;;;;;;6.32;3.40;;;;;;;28.08;40.81;100830.06;4993268;28;20050;-66
2023/06/18 10:37:00;;;;;;;4.97;3.08;;;;;;;27.87;41.79;100835.56;4993683;28;20093;-67
2023/06/18 10:39:28;;;;;;;4.75;3.60;;;;;;;28.12;40.95;100820.94;4993117;28;20460;-66
2023/06/18 10:42:00;;;;;;;3.90;3.50;;;;;;;28.19;39.24;100828.94;4993145;28;20050;-67
2023/06/18 10:44:33;;;;;;;3.92;3.13;;;;;;;28.14;38.78;100815.13;4992962;28;20062;-66
2023/06/18 10:47:22;;;;;;;4.30;2.92;;;;;;;27.61;40.71;100820.03;4992847;28;20435;-66
2023/06/18 10:50:01;;;;;;;6.88;3.50;;;;;;;27.44;39.92;100815.56;4992839;28;20133;-67
2023/06/18 10:52:30;;;;;;;4.35;3.50;;;;;;;26.89;42.67;100816.97;4992897;28;20112;-67
2023/06/18 10:55:07;;;;;;;5.80;3.33;;;;;;;26.85;43.49;100818.59;4993315;28;20050;-66
2023/06/18 10:57:43;;;;;;;6.25;3.70;;;;;;;27.13;42.50;100816.53;4992329;28;20125;-66
2023/06/18 11:00:17;;;;;;;8.40;3.65;;;;;;;26.67;42.54;100817.09;4992764;28;20117;-67
2023/06/18 11:02:46;;;;;;;4.47;3.25;;;;;;;26.32;43.43;100815.75;4975685;28;20046;-67
2023/06/18 11:05:16;;;;;;;7.68;3.60;;;;;;;25.97;44.20;100810.75;4992565;28;20100;-67
2023/06/18 11:07:43;;;;;;;4.07;3.03;;;;;;;25.57;43.97;100814.72;4992503;28;20100;-67
2023/06/18 11:10:09;;;;;;;4.85;3.78;;;;;;;24.98;46.14;100806.28;4992482;28;20129;-67
2023/06/18 11:12:38;;;;;;;5.85;3.65;;;;;;;25.22;44.84;100809.66;4992352;28;20054;-68
2023/06/18 11:15:18;;;;;;;12.40;4.13;;;;;;;25.00;46.23;100804.16;4992457;28;20121;-67
2023/06/18 11:18:03;;;;;;;8.57;4.20;;;;;;;24.58;47.90;100812.88;4991970;28;20062;-68